sensor_id;sensor_type;location;lat;lon;timestamp;pressure;altitude;pressure_sealevel;temperature
65316;BMP280;51920;53.952;10.292;2023-11-21T00:02:27;100594.34;;;7.83
65316;BMP280;51920;53.952;10.292;2023-11-21T00:04:54;100600.69;;;7.71
65316;BMP280;51920;53.952;10.292;2023-11-21T00:07:21;100603.47;;;7.75
65316;BMP280;51920;53.952;10.292;2023-11-21T00:09:48;100606.00;;;7.67
65316;BMP280;51920;53.952;10.292;2023-11-21T00:12:14;100616.50;;;7.73
65316;BMP280;51920;53.952;10.292;2023-11-21T00:14:41;100625.41;;;7.77
65316;BMP280;51920;53.952;10.292;2023-11-21T00:17:08;100632.63;;;7.69
65316;BMP280;51920;53.952;10.292;2023-11-21T00:19:35;100637.53;;;7.63
65316;BMP280;51920;53.952;10.292;2023-11-21T00:22:02;100638.28;;;7.64
65316;BMP280;51920;53.952;10.292;2023-11-21T00:24:30;100640.03;;;7.76
65316;BMP280;51920;53.952;10.292;2023-11-21T00:26:57;100643.16;;;7.78
65316;BMP280;51920;53.952;10.292;2023-11-21T00:29:23;100645.88;;;7.78
65316;BMP280;51920;53.952;10.292;2023-11-21T00:31:50;100645.03;;;7.74
65316;BMP280;51920;53.952;10.292;2023-11-21T00:34:17;100647.13;;;7.84
65316;BMP280;51920;53.952;10.292;2023-11-21T00:36:44;100650.78;;;7.72
65316;BMP280;51920;53.952;10.292;2023-11-21T00:39:11;100641.41;;;7.66
65316;BMP280;51920;53.952;10.292;2023-11-21T00:41:38;100643.75;;;7.67
65316;BMP280;51920;53.952;10.292;2023-11-21T00:44:05;100645.97;;;7.62
65316;BMP280;51920;53.952;10.292;2023-11-21T00:46:33;100649.16;;;7.67
65316;BMP280;51920;53.952;10.292;2023-11-21T00:49:00;100643.41;;;7.69
65316;BMP280;51920;53.952;10.292;2023-11-21T00:51:26;100649.84;;;7.64
65316;BMP280;51920;53.952;10.292;2023-11-21T00:53:53;100646.69;;;7.59
65316;BMP280;51920;53.952;10.292;2023-11-21T00:56:20;100655.53;;;7.59
65316;BMP280;51920;53.952;10.292;2023-11-21T00:58:47;100649.50;;;7.66
65316;BMP280;51920;53.952;10.292;2023-11-21T01:01:16;100656.19;;;7.53
65316;BMP280;51920;53.952;10.292;2023-11-21T01:03:43;100658.97;;;7.56
65316;BMP280;51920;53.952;10.292;2023-11-21T01:06:10;100659.25;;;7.51
65316;BMP280;51920;53.952;10.292;2023-11-21T01:08:38;100674.41;;;7.59
65316;BMP280;51920;53.952;10.292;2023-11-21T01:11:05;100677.81;;;7.56
65316;BMP280;51920;53.952;10.292;2023-11-21T01:13:34;100675.13;;;7.56
65316;BMP280;51920;53.952;10.292;2023-11-21T01:16:01;100677.75;;;7.53
65316;BMP280;51920;53.952;10.292;2023-11-21T01:18:28;100682.38;;;7.52
65316;BMP280;51920;53.952;10.292;2023-11-21T01:20:55;100682.66;;;7.47
65316;BMP280;51920;53.952;10.292;2023-11-21T01:23:22;100686.41;;;7.42
65316;BMP280;51920;53.952;10.292;2023-11-21T01:25:49;100691.88;;;7.46
65316;BMP280;51920;53.952;10.292;2023-11-21T01:28:18;100691.00;;;7.42
65316;BMP280;51920;53.952;10.292;2023-11-21T01:30:44;100701.97;;;7.49
65316;BMP280;51920;53.952;10.292;2023-11-21T01:33:12;100699.88;;;7.42
65316;BMP280;51920;53.952;10.292;2023-11-21T01:35:38;100711.22;;;7.32
65316;BMP280;51920;53.952;10.292;2023-11-21T01:38:05;100718.63;;;7.35
65316;BMP280;51920;53.952;10.292;2023-11-21T01:40:35;100717.94;;;7.42
65316;BMP280;51920;53.952;10.292;2023-11-21T01:43:03;100727.03;;;7.34
65316;BMP280;51920;53.952;10.292;2023-11-21T01:45:32;100741.44;;;7.41
65316;BMP280;51920;53.952;10.292;2023-11-21T01:48:00;100726.78;;;7.39
65316;BMP280;51920;53.952;10.292;2023-11-21T01:50:27;100734.88;;;7.39
65316;BMP280;51920;53.952;10.292;2023-11-21T01:52:55;100734.13;;;7.42
65316;BMP280;51920;53.952;10.292;2023-11-21T01:55:22;100731.66;;;7.33
65316;BMP280;51920;53.952;10.292;2023-11-21T01:57:53;100733.47;;;7.29
65316;BMP280;51920;53.952;10.292;2023-11-21T02:00:20;100737.91;;;7.37
65316;BMP280;51920;53.952;10.292;2023-11-21T02:02:48;100743.72;;;7.39
65316;BMP280;51920;53.952;10.292;2023-11-21T02:05:16;100748.53;;;7.30
65316;BMP280;51920;53.952;10.292;2023-11-21T02:07:46;100752.84;;;7.35
65316;BMP280;51920;53.952;10.292;2023-11-21T02:10:15;100755.78;;;7.45
65316;BMP280;51920;53.952;10.292;2023-11-21T02:12:42;100748.75;;;7.41
65316;BMP280;51920;53.952;10.292;2023-11-21T02:15:13;100756.25;;;7.32
65316;BMP280;51920;53.952;10.292;2023-11-21T02:17:47;100765.03;;;7.28
65316;BMP280;51920;53.952;10.292;2023-11-21T02:20:18;100759.38;;;7.34
65316;BMP280;51920;53.952;10.292;2023-11-21T02:22:50;100758.91;;;7.28
65316;BMP280;51920;53.952;10.292;2023-11-21T02:25:25;100753.84;;;7.26
65316;BMP280;51920;53.952;10.292;2023-11-21T02:27:55;100760.50;;;7.33
65316;BMP280;51920;53.952;10.292;2023-11-21T02:30:22;100769.38;;;7.33
65316;BMP280;51920;53.952;10.292;2023-11-21T02:32:51;100771.84;;;7.42
65316;BMP280;51920;53.952;10.292;2023-11-21T02:35:24;100764.06;;;7.37
65316;BMP280;51920;53.952;10.292;2023-11-21T02:37:53;100772.44;;;7.32
65316;BMP280;51920;53.952;10.292;2023-11-21T02:40:20;100777.22;;;7.42
65316;BMP280;51920;53.952;10.292;2023-11-21T02:42:47;100777.97;;;7.39
65316;BMP280;51920;53.952;10.292;2023-11-21T02:45:15;100783.28;;;7.35
65316;BMP280;51920;53.952;10.292;2023-11-21T02:47:44;100779.28;;;7.29
65316;BMP280;51920;53.952;10.292;2023-11-21T02:50:12;100781.72;;;7.34
65316;BMP280;51920;53.952;10.292;2023-11-21T02:52:39;100788.44;;;7.24
65316;BMP280;51920;53.952;10.292;2023-11-21T02:55:08;100786.44;;;7.21
65316;BMP280;51920;53.952;10.292;2023-11-21T02:57:35;100793.09;;;7.63
65316;BMP280;51920;53.952;10.292;2023-11-21T03:00:02;100796.34;;;7.53
65316;BMP280;51920;53.952;10.292;2023-11-21T03:02:30;100798.53;;;7.47
65316;BMP280;51920;53.952;10.292;2023-11-21T03:04:56;100796.84;;;7.39
65316;BMP280;51920;53.952;10.292;2023-11-21T03:07:23;100794.16;;;7.39
65316;BMP280;51920;53.952;10.292;2023-11-21T03:09:50;100804.56;;;7.40
65316;BMP280;51920;53.952;10.292;2023-11-21T03:12:17;100809.81;;;7.33
65316;BMP280;51920;53.952;10.292;2023-11-21T03:14:44;100804.75;;;7.32
65316;BMP280;51920;53.952;10.292;2023-11-21T03:17:10;100808.56;;;7.31
65316;BMP280;51920;53.952;10.292;2023-11-21T03:19:38;100817.00;;;7.29
65316;BMP280;51920;53.952;10.292;2023-11-21T03:22:05;100818.31;;;7.35
65316;BMP280;51920;53.952;10.292;2023-11-21T03:24:32;100821.59;;;7.28
65316;BMP280;51920;53.952;10.292;2023-11-21T03:26:59;100826.59;;;7.26
65316;BMP280;51920;53.952;10.292;2023-11-21T03:29:26;100836.84;;;7.21
65316;BMP280;51920;53.952;10.292;2023-11-21T03:31:53;100830.22;;;7.34
65316;BMP280;51920;53.952;10.292;2023-11-21T03:34:27;100821.03;;;7.19
65316;BMP280;51920;53.952;10.292;2023-11-21T03:36:54;100837.97;;;7.20
65316;BMP280;51920;53.952;10.292;2023-11-21T03:39:21;100845.16;;;7.32
65316;BMP280;51920;53.952;10.292;2023-11-21T03:41:49;100851.41;;;7.52
65316;BMP280;51920;53.952;10.292;2023-11-21T03:44:15;100851.78;;;7.34
65316;BMP280;51920;53.952;10.292;2023-11-21T03:46:42;100853.25;;;7.32
65316;BMP280;51920;53.952;10.292;2023-11-21T03:49:11;100860.47;;;7.27
65316;BMP280;51920;53.952;10.292;2023-11-21T03:51:38;100840.41;;;7.09
65316;BMP280;51920;53.952;10.292;2023-11-21T03:54:05;100864.72;;;7.28
65316;BMP280;51920;53.952;10.292;2023-11-21T03:56:32;100869.69;;;7.26
65316;BMP280;51920;53.952;10.292;2023-11-21T03:58:59;100869.19;;;7.21
65316;BMP280;51920;53.952;10.292;2023-11-21T04:01:26;100870.63;;;7.18
65316;BMP280;51920;53.952;10.292;2023-11-21T04:03:52;100874.56;;;7.21
65316;BMP280;51920;53.952;10.292;2023-11-21T04:06:19;100885.00;;;7.22
65316;BMP280;51920;53.952;10.292;2023-11-21T04:08:46;100885.34;;;7.21
65316;BMP280;51920;53.952;10.292;2023-11-21T04:11:12;100875.69;;;7.20
65316;BMP280;51920;53.952;10.292;2023-11-21T04:13:40;100888.13;;;7.24
65316;BMP280;51920;53.952;10.292;2023-11-21T04:16:07;100891.16;;;7.23
65316;BMP280;51920;53.952;10.292;2023-11-21T04:18:38;100900.44;;;7.25
65316;BMP280;51920;53.952;10.292;2023-11-21T04:21:05;100895.59;;;7.15
65316;BMP280;51920;53.952;10.292;2023-11-21T04:23:32;100896.47;;;7.19
65316;BMP280;51920;53.952;10.292;2023-11-21T04:26:00;100904.03;;;7.14
65316;BMP280;51920;53.952;10.292;2023-11-21T04:28:28;100910.13;;;7.26
65316;BMP280;51920;53.952;10.292;2023-11-21T04:30:55;100902.72;;;7.23
65316;BMP280;51920;53.952;10.292;2023-11-21T04:33:22;100912.47;;;7.12
65316;BMP280;51920;53.952;10.292;2023-11-21T04:35:49;100904.28;;;7.09
65316;BMP280;51920;53.952;10.292;2023-11-21T04:38:15;100920.63;;;7.16
65316;BMP280;51920;53.952;10.292;2023-11-21T04:40:42;100925.03;;;7.24
65316;BMP280;51920;53.952;10.292;2023-11-21T04:43:09;100918.72;;;7.16
65316;BMP280;51920;53.952;10.292;2023-11-21T04:45:35;100917.06;;;7.27
65316;BMP280;51920;53.952;10.292;2023-11-21T04:48:02;100929.38;;;7.28
65316;BMP280;51920;53.952;10.292;2023-11-21T04:50:30;100928.78;;;7.19
65316;BMP280;51920;53.952;10.292;2023-11-21T04:52:56;100927.47;;;7.13
65316;BMP280;51920;53.952;10.292;2023-11-21T04:55:23;100926.81;;;7.16
65316;BMP280;51920;53.952;10.292;2023-11-21T04:57:50;100936.28;;;7.10
65316;BMP280;51920;53.952;10.292;2023-11-21T05:00:17;100944.78;;;7.12
65316;BMP280;51920;53.952;10.292;2023-11-21T05:02:44;100945.66;;;7.16
65316;BMP280;51920;53.952;10.292;2023-11-21T05:05:11;100953.66;;;7.13
65316;BMP280;51920;53.952;10.292;2023-11-21T05:07:39;100949.63;;;7.06
65316;BMP280;51920;53.952;10.292;2023-11-21T05:10:07;100957.63;;;7.19
65316;BMP280;51920;53.952;10.292;2023-11-21T05:12:37;100954.84;;;7.15
65316;BMP280;51920;53.952;10.292;2023-11-21T05:15:05;100960.88;;;7.24
65316;BMP280;51920;53.952;10.292;2023-11-21T05:17:34;100963.56;;;7.24
65316;BMP280;51920;53.952;10.292;2023-11-21T05:20:01;100967.00;;;7.09
65316;BMP280;51920;53.952;10.292;2023-11-21T05:22:34;100970.59;;;7.13
65316;BMP280;51920;53.952;10.292;2023-11-21T05:25:02;100966.84;;;7.02
65316;BMP280;51920;53.952;10.292;2023-11-21T05:27:32;100966.84;;;7.02
65316;BMP280;51920;53.952;10.292;2023-11-21T05:29:59;100973.72;;;7.15
65316;BMP280;51920;53.952;10.292;2023-11-21T05:32:26;100967.00;;;7.09
65316;BMP280;51920;53.952;10.292;2023-11-21T05:34:53;100971.00;;;6.99
65316;BMP280;51920;53.952;10.292;2023-11-21T05:37:19;100980.16;;;7.11
65316;BMP280;51920;53.952;10.292;2023-11-21T05:39:46;100986.91;;;7.20
65316;BMP280;51920;53.952;10.292;2023-11-21T05:42:15;100993.94;;;7.09
65316;BMP280;51920;53.952;10.292;2023-11-21T05:44:43;100996.03;;;7.00
65316;BMP280;51920;53.952;10.292;2023-11-21T05:47:10;100980.09;;;6.95
65316;BMP280;51920;53.952;10.292;2023-11-21T05:49:36;101014.38;;;7.10
65316;BMP280;51920;53.952;10.292;2023-11-21T05:52:03;101010.28;;;7.00
65316;BMP280;51920;53.952;10.292;2023-11-21T05:54:32;101022.41;;;6.94
65316;BMP280;51920;53.952;10.292;2023-11-21T05:56:59;101028.00;;;7.01
65316;BMP280;51920;53.952;10.292;2023-11-21T05:59:26;101031.22;;;7.07
65316;BMP280;51920;53.952;10.292;2023-11-21T06:01:53;101034.06;;;6.98
65316;BMP280;51920;53.952;10.292;2023-11-21T06:04:20;101031.72;;;6.97
65316;BMP280;51920;53.952;10.292;2023-11-21T06:06:51;101036.94;;;7.05
65316;BMP280;51920;53.952;10.292;2023-11-21T06:09:19;101038.72;;;7.14
65316;BMP280;51920;53.952;10.292;2023-11-21T06:11:47;101038.63;;;7.10
65316;BMP280;51920;53.952;10.292;2023-11-21T06:14:13;101040.34;;;7.18
65316;BMP280;51920;53.952;10.292;2023-11-21T06:16:44;101047.72;;;7.05
65316;BMP280;51920;53.952;10.292;2023-11-21T06:19:11;101046.06;;;7.01
65316;BMP280;51920;53.952;10.292;2023-11-21T06:21:38;101059.09;;;6.99
65316;BMP280;51920;53.952;10.292;2023-11-21T06:24:05;101054.13;;;7.01
65316;BMP280;51920;53.952;10.292;2023-11-21T06:26:33;101055.66;;;7.14
65316;BMP280;51920;53.952;10.292;2023-11-21T06:29:01;101069.81;;;7.11
65316;BMP280;51920;53.952;10.292;2023-11-21T06:31:29;101075.75;;;7.04
65316;BMP280;51920;53.952;10.292;2023-11-21T06:33:56;101066.16;;;7.03
65316;BMP280;51920;53.952;10.292;2023-11-21T06:36:26;101077.00;;;7.07
65316;BMP280;51920;53.952;10.292;2023-11-21T06:38:53;101090.81;;;7.05
65316;BMP280;51920;53.952;10.292;2023-11-21T06:41:19;101090.34;;;7.16
65316;BMP280;51920;53.952;10.292;2023-11-21T06:43:47;101089.81;;;7.10
65316;BMP280;51920;53.952;10.292;2023-11-21T06:46:14;101103.03;;;7.15
65316;BMP280;51920;53.952;10.292;2023-11-21T06:48:44;101088.91;;;7.06
65316;BMP280;51920;53.952;10.292;2023-11-21T06:51:11;101109.66;;;7.05
65316;BMP280;51920;53.952;10.292;2023-11-21T06:53:39;101117.84;;;7.09
65316;BMP280;51920;53.952;10.292;2023-11-21T06:56:15;101123.25;;;7.09
65316;BMP280;51920;53.952;10.292;2023-11-21T06:58:43;101124.47;;;7.12
65316;BMP280;51920;53.952;10.292;2023-11-21T07:01:13;101119.13;;;6.99
65316;BMP280;51920;53.952;10.292;2023-11-21T07:03:40;101132.47;;;6.96
65316;BMP280;51920;53.952;10.292;2023-11-21T07:06:08;101138.59;;;7.21
65316;BMP280;51920;53.952;10.292;2023-11-21T07:08:35;101150.78;;;7.02
65316;BMP280;51920;53.952;10.292;2023-11-21T07:11:01;101160.53;;;6.95
65316;BMP280;51920;53.952;10.292;2023-11-21T07:13:30;101162.69;;;7.01
65316;BMP280;51920;53.952;10.292;2023-11-21T07:15:59;101149.25;;;6.89
65316;BMP280;51920;53.952;10.292;2023-11-21T07:18:26;101150.78;;;6.90
65316;BMP280;51920;53.952;10.292;2023-11-21T07:20:53;101176.03;;;6.98
65316;BMP280;51920;53.952;10.292;2023-11-21T07:23:20;101172.72;;;7.04
65316;BMP280;51920;53.952;10.292;2023-11-21T07:25:49;101182.84;;;7.07
65316;BMP280;51920;53.952;10.292;2023-11-21T07:28:15;101166.25;;;6.93
65316;BMP280;51920;53.952;10.292;2023-11-21T07:30:42;101180.06;;;6.92
65316;BMP280;51920;53.952;10.292;2023-11-21T07:33:10;101192.19;;;6.98
65316;BMP280;51920;53.952;10.292;2023-11-21T07:35:36;101185.03;;;6.90
65316;BMP280;51920;53.952;10.292;2023-11-21T07:38:03;101183.13;;;6.90
65316;BMP280;51920;53.952;10.292;2023-11-21T07:40:30;101193.53;;;6.92
65316;BMP280;51920;53.952;10.292;2023-11-21T07:42:59;101168.88;;;6.77
65316;BMP280;51920;53.952;10.292;2023-11-21T07:45:28;101187.28;;;6.88
65316;BMP280;51920;53.952;10.292;2023-11-21T07:47:54;101192.97;;;6.98
65316;BMP280;51920;53.952;10.292;2023-11-21T07:50:22;101199.34;;;6.94
65316;BMP280;51920;53.952;10.292;2023-11-21T07:52:49;101201.06;;;6.98
65316;BMP280;51920;53.952;10.292;2023-11-21T07:55:16;101200.16;;;6.94
65316;BMP280;51920;53.952;10.292;2023-11-21T07:57:43;101201.38;;;7.09
65316;BMP280;51920;53.952;10.292;2023-11-21T08:00:10;101202.75;;;7.03
65316;BMP280;51920;53.952;10.292;2023-11-21T08:02:39;101195.78;;;7.02
65316;BMP280;51920;53.952;10.292;2023-11-21T08:05:08;101203.41;;;7.00
65316;BMP280;51920;53.952;10.292;2023-11-21T08:07:36;101193.09;;;7.02
65316;BMP280;51920;53.952;10.292;2023-11-21T08:10:04;101209.78;;;7.07
65316;BMP280;51920;53.952;10.292;2023-11-21T08:12:31;101212.72;;;7.02
65316;BMP280;51920;53.952;10.292;2023-11-21T08:14:58;101213.03;;;7.13
65316;BMP280;51920;53.952;10.292;2023-11-21T08:17:25;101210.00;;;7.15
65316;BMP280;51920;53.952;10.292;2023-11-21T08:19:51;101232.41;;;7.19
65316;BMP280;51920;53.952;10.292;2023-11-21T08:22:19;101220.50;;;7.32
65316;BMP280;51920;53.952;10.292;2023-11-21T08:24:45;101233.06;;;7.40
65316;BMP280;51920;53.952;10.292;2023-11-21T08:27:13;101242.19;;;7.36
65316;BMP280;51920;53.952;10.292;2023-11-21T08:29:42;101247.56;;;7.36
65316;BMP280;51920;53.952;10.292;2023-11-21T08:32:09;101252.72;;;7.41
65316;BMP280;51920;53.952;10.292;2023-11-21T08:34:36;101252.41;;;7.30
65316;BMP280;51920;53.952;10.292;2023-11-21T08:37:03;101252.34;;;7.14
65316;BMP280;51920;53.952;10.292;2023-11-21T08:39:29;101256.44;;;7.24
65316;BMP280;51920;53.952;10.292;2023-11-21T08:41:57;101263.56;;;7.16
65316;BMP280;51920;53.952;10.292;2023-11-21T08:44:24;101268.91;;;7.28
65316;BMP280;51920;53.952;10.292;2023-11-21T08:46:51;101269.50;;;7.10
65316;BMP280;51920;53.952;10.292;2023-11-21T08:49:18;101284.22;;;7.12
65316;BMP280;51920;53.952;10.292;2023-11-21T08:51:44;101281.28;;;7.05
65316;BMP280;51920;53.952;10.292;2023-11-21T08:54:12;101293.84;;;7.01
65316;BMP280;51920;53.952;10.292;2023-11-21T08:56:39;101294.06;;;7.08
65316;BMP280;51920;53.952;10.292;2023-11-21T08:59:06;101300.91;;;7.18
65316;BMP280;51920;53.952;10.292;2023-11-21T09:01:34;101302.25;;;7.12
65316;BMP280;51920;53.952;10.292;2023-11-21T09:04:01;101283.78;;;6.98
65316;BMP280;51920;53.952;10.292;2023-11-21T09:06:29;101288.56;;;7.04
65316;BMP280;51920;53.952;10.292;2023-11-21T09:08:55;101315.63;;;7.20
65316;BMP280;51920;53.952;10.292;2023-11-21T09:11:22;101314.94;;;7.23
65316;BMP280;51920;53.952;10.292;2023-11-21T09:13:50;101325.94;;;7.31
65316;BMP280;51920;53.952;10.292;2023-11-21T09:16:17;101327.84;;;7.18
65316;BMP280;51920;53.952;10.292;2023-11-21T09:18:45;101325.59;;;7.20
65316;BMP280;51920;53.952;10.292;2023-11-21T09:21:11;101327.06;;;7.17
65316;BMP280;51920;53.952;10.292;2023-11-21T09:23:38;101339.66;;;7.25
65316;BMP280;51920;53.952;10.292;2023-11-21T09:26:05;101338.22;;;7.28
65316;BMP280;51920;53.952;10.292;2023-11-21T09:28:32;101332.59;;;7.33
65316;BMP280;51920;53.952;10.292;2023-11-21T09:30:58;101342.22;;;7.22
65316;BMP280;51920;53.952;10.292;2023-11-21T09:33:25;101348.88;;;7.24
65316;BMP280;51920;53.952;10.292;2023-11-21T09:35:52;101351.56;;;7.24
65316;BMP280;51920;53.952;10.292;2023-11-21T09:38:19;101350.19;;;7.18
65316;BMP280;51920;53.952;10.292;2023-11-21T09:40:45;101354.72;;;7.14
65316;BMP280;51920;53.952;10.292;2023-11-21T09:43:16;101361.66;;;7.15
65316;BMP280;51920;53.952;10.292;2023-11-21T09:45:52;101373.34;;;7.44
65316;BMP280;51920;53.952;10.292;2023-11-21T09:48:21;101376.69;;;7.28
65316;BMP280;51920;53.952;10.292;2023-11-21T09:50:49;101375.13;;;7.27
65316;BMP280;51920;53.952;10.292;2023-11-21T09:53:19;101376.34;;;7.18
65316;BMP280;51920;53.952;10.292;2023-11-21T09:55:49;101376.59;;;7.13
65316;BMP280;51920;53.952;10.292;2023-11-21T09:58:18;101368.63;;;7.16
65316;BMP280;51920;53.952;10.292;2023-11-21T10:00:47;101379.38;;;7.28
65316;BMP280;51920;53.952;10.292;2023-11-21T10:03:14;101375.59;;;7.30
65316;BMP280;51920;53.952;10.292;2023-11-21T10:05:42;101381.88;;;7.21
65316;BMP280;51920;53.952;10.292;2023-11-21T10:08:10;101373.13;;;7.12
65316;BMP280;51920;53.952;10.292;2023-11-21T10:10:44;101385.56;;;7.29
65316;BMP280;51920;53.952;10.292;2023-11-21T10:13:17;101392.66;;;7.21
65316;BMP280;51920;53.952;10.292;2023-11-21T10:15:55;101394.88;;;7.19
65316;BMP280;51920;53.952;10.292;2023-11-21T10:18:22;101394.78;;;7.16
65316;BMP280;51920;53.952;10.292;2023-11-21T10:20:51;101400.06;;;7.12
65316;BMP280;51920;53.952;10.292;2023-11-21T10:23:19;101402.31;;;7.10
65316;BMP280;51920;53.952;10.292;2023-11-21T10:25:47;101400.72;;;7.09
65316;BMP280;51920;53.952;10.292;2023-11-21T10:28:16;101405.19;;;7.05
65316;BMP280;51920;53.952;10.292;2023-11-21T10:30:44;101407.81;;;7.14
65316;BMP280;51920;53.952;10.292;2023-11-21T10:33:10;101410.13;;;6.91
65316;BMP280;51920;53.952;10.292;2023-11-21T10:35:47;101408.31;;;6.95
65316;BMP280;51920;53.952;10.292;2023-11-21T10:38:18;101414.13;;;6.84
65316;BMP280;51920;53.952;10.292;2023-11-21T10:40:45;101416.88;;;6.63
65316;BMP280;51920;53.952;10.292;2023-11-21T10:43:13;101429.25;;;6.64
65316;BMP280;51920;53.952;10.292;2023-11-21T10:45:42;101423.34;;;6.50
65316;BMP280;51920;53.952;10.292;2023-11-21T10:48:10;101440.13;;;6.68
65316;BMP280;51920;53.952;10.292;2023-11-21T10:50:37;101448.66;;;6.70
65316;BMP280;51920;53.952;10.292;2023-11-21T10:53:05;101443.25;;;6.70
65316;BMP280;51920;53.952;10.292;2023-11-21T10:55:32;101437.31;;;6.64
65316;BMP280;51920;53.952;10.292;2023-11-21T10:58:01;101446.22;;;6.77
65316;BMP280;51920;53.952;10.292;2023-11-21T11:00:29;101445.38;;;6.64
65316;BMP280;51920;53.952;10.292;2023-11-21T11:02:56;101446.38;;;6.60
65316;BMP280;51920;53.952;10.292;2023-11-21T11:05:24;101451.41;;;6.61
65316;BMP280;51920;53.952;10.292;2023-11-21T11:08:04;101441.09;;;6.63
65316;BMP280;51920;53.952;10.292;2023-11-21T11:10:31;101447.41;;;6.68
65316;BMP280;51920;53.952;10.292;2023-11-21T11:12:59;101449.28;;;6.67
65316;BMP280;51920;53.952;10.292;2023-11-21T11:15:26;101446.41;;;6.72
65316;BMP280;51920;53.952;10.292;2023-11-21T11:17:54;101451.09;;;6.63
65316;BMP280;51920;53.952;10.292;2023-11-21T11:20:29;101447.72;;;6.66
65316;BMP280;51920;53.952;10.292;2023-11-21T11:23:32;101443.84;;;6.55
65316;BMP280;51920;53.952;10.292;2023-11-21T11:26:32;101456.06;;;6.52
65316;BMP280;51920;53.952;10.292;2023-11-21T11:29:23;101459.88;;;6.30
65316;BMP280;51920;53.952;10.292;2023-11-21T11:32:09;101461.53;;;6.43
65316;BMP280;51920;53.952;10.292;2023-11-21T11:37:28;101465.09;;;6.35
65316;BMP280;51920;53.952;10.292;2023-11-21T11:39:55;101451.78;;;6.18
65316;BMP280;51920;53.952;10.292;2023-11-21T11:42:23;101465.47;;;6.25
65316;BMP280;51920;53.952;10.292;2023-11-21T11:44:51;101458.25;;;6.17
65316;BMP280;51920;53.952;10.292;2023-11-21T11:50:08;101474.22;;;6.22
65316;BMP280;51920;53.952;10.292;2023-11-21T11:52:45;101479.59;;;6.22
65316;BMP280;51920;53.952;10.292;2023-11-21T11:55:16;101448.66;;;6.07
65316;BMP280;51920;53.952;10.292;2023-11-21T11:57:47;101484.31;;;6.25
65316;BMP280;51920;53.952;10.292;2023-11-21T12:02:59;101491.72;;;6.28
65316;BMP280;51920;53.952;10.292;2023-11-21T12:05:31;101490.16;;;6.27
65316;BMP280;51920;53.952;10.292;2023-11-21T12:08:12;101497.56;;;6.30
65316;BMP280;51920;53.952;10.292;2023-11-21T12:10:39;101498.22;;;6.27
65316;BMP280;51920;53.952;10.292;2023-11-21T12:13:10;101505.00;;;6.33
65316;BMP280;51920;53.952;10.292;2023-11-21T12:15:38;101514.97;;;6.33
65316;BMP280;51920;53.952;10.292;2023-11-21T12:18:07;101522.44;;;6.27
65316;BMP280;51920;53.952;10.292;2023-11-21T12:20:34;101524.19;;;6.23
65316;BMP280;51920;53.952;10.292;2023-11-21T12:23:05;101524.41;;;6.18
65316;BMP280;51920;53.952;10.292;2023-11-21T12:25:32;101528.19;;;6.17
65316;BMP280;51920;53.952;10.292;2023-11-21T12:28:01;101535.38;;;6.34
65316;BMP280;51920;53.952;10.292;2023-11-21T12:30:30;101533.56;;;6.17
65316;BMP280;51920;53.952;10.292;2023-11-21T12:32:59;101547.97;;;6.21
65316;BMP280;51920;53.952;10.292;2023-11-21T12:35:30;101543.03;;;6.23
65316;BMP280;51920;53.952;10.292;2023-11-21T12:37:57;101546.19;;;6.25
65316;BMP280;51920;53.952;10.292;2023-11-21T12:40:24;101539.88;;;6.21
65316;BMP280;51920;53.952;10.292;2023-11-21T12:42:54;101541.41;;;6.31
65316;BMP280;51920;53.952;10.292;2023-11-21T12:45:23;101542.28;;;6.43
65316;BMP280;51920;53.952;10.292;2023-11-21T12:48:02;101544.72;;;6.36
65316;BMP280;51920;53.952;10.292;2023-11-21T12:50:34;101549.13;;;6.62
65316;BMP280;51920;53.952;10.292;2023-11-21T12:53:07;101562.84;;;6.48
65316;BMP280;51920;53.952;10.292;2023-11-21T12:55:44;101561.75;;;6.40
65316;BMP280;51920;53.952;10.292;2023-11-21T12:58:16;101562.34;;;6.25
65316;BMP280;51920;53.952;10.292;2023-11-21T13:00:45;101559.44;;;6.30
65316;BMP280;51920;53.952;10.292;2023-11-21T13:03:15;101565.31;;;6.32
65316;BMP280;51920;53.952;10.292;2023-11-21T13:05:52;101584.94;;;6.24
65316;BMP280;51920;53.952;10.292;2023-11-21T13:08:22;101595.09;;;6.27
65316;BMP280;51920;53.952;10.292;2023-11-21T13:10:52;101593.69;;;6.21
65316;BMP280;51920;53.952;10.292;2023-11-21T13:13:24;101566.84;;;6.03
65316;BMP280;51920;53.952;10.292;2023-11-21T13:15:53;101579.63;;;6.15
65316;BMP280;51920;53.952;10.292;2023-11-21T13:18:27;101590.38;;;6.15
65316;BMP280;51920;53.952;10.292;2023-11-21T13:20:56;101596.72;;;6.11
65316;BMP280;51920;53.952;10.292;2023-11-21T13:23:23;101592.97;;;6.03
65316;BMP280;51920;53.952;10.292;2023-11-21T13:25:51;101578.63;;;5.81
65316;BMP280;51920;53.952;10.292;2023-11-21T13:28:28;101559.13;;;5.63
65316;BMP280;51920;53.952;10.292;2023-11-21T13:31:03;101593.69;;;5.82
65316;BMP280;51920;53.952;10.292;2023-11-21T13:33:36;101602.84;;;5.90
65316;BMP280;51920;53.952;10.292;2023-11-21T13:36:11;101597.34;;;5.78
65316;BMP280;51920;53.952;10.292;2023-11-21T13:39:00;101564.50;;;5.63
65316;BMP280;51920;53.952;10.292;2023-11-21T13:42:17;101604.44;;;5.91
65316;BMP280;51920;53.952;10.292;2023-11-21T13:44:45;101595.75;;;5.77
65316;BMP280;51920;53.952;10.292;2023-11-21T13:47:39;101578.09;;;5.58
65316;BMP280;51920;53.952;10.292;2023-11-21T13:50:08;101580.63;;;5.63
65316;BMP280;51920;53.952;10.292;2023-11-21T13:52:45;101588.34;;;5.74
65316;BMP280;51920;53.952;10.292;2023-11-21T13:55:20;101612.31;;;5.88
65316;BMP280;51920;53.952;10.292;2023-11-21T13:57:51;101618.34;;;5.93
65316;BMP280;51920;53.952;10.292;2023-11-21T14:00:24;101615.66;;;5.93
65316;BMP280;51920;53.952;10.292;2023-11-21T14:03:32;101616.44;;;5.94
65316;BMP280;51920;53.952;10.292;2023-11-21T14:06:15;101611.53;;;5.87
65316;BMP280;51920;53.952;10.292;2023-11-21T14:09:04;101591.19;;;5.69
65316;BMP280;51920;53.952;10.292;2023-11-21T14:11:39;101584.53;;;5.66
65316;BMP280;51920;53.952;10.292;2023-11-21T14:14:14;101622.91;;;5.84
65316;BMP280;51920;53.952;10.292;2023-11-21T14:16:44;101608.13;;;5.60